Time;durP1;ratioP1;P1;durP2;ratioP2;P2;SDS_P1;SDS_P2;PMS_P1;PMS_P2;Temp;Humidity;BMP_temperature;BMP_pressure;BME280_temperature;BME280_humidity;BME280_pressure;Samples;Min_cycle;Max_cycle;Signal;HPM_P1;HPM_P2
2022/07/19 00:00:26;;;;;;;17.17;11.02;;;18.70;99.90;;;;;;5090092;28;20044;-76
2022/07/19 00:02:52;;;;;;;15.43;10.63;;;18.60;99.90;;;;;;5074495;28;20052;-76
2022/07/19 00:05:19;;;;;;;19.45;10.75;;;18.60;99.90;;;;;;5090417;28;20110;-76
2022/07/19 00:07:45;;;;;;;16.48;10.45;;;18.60;99.90;;;;;;5073427;28;20369;-76
2022/07/19 00:10:13;;;;;;;17.75;11.23;;;18.60;99.90;;;;;;5073452;28;20501;-76
2022/07/19 00:12:39;;;;;;;18.83;12.23;;;18.50;99.90;;;;;;5074465;28;20048;-75
2022/07/19 00:15:08;;;;;;;17.98;11.75;;;18.50;99.90;;;;;;5072910;28;20124;-76
2022/07/19 00:17:34;;;;;;;18.00;11.85;;;18.50;99.90;;;;;;5074381;28;20051;-76
2022/07/19 00:20:00;;;;;;;16.08;11.52;;;18.50;99.90;;;;;;5073023;28;20136;-76
2022/07/19 00:22:26;;;;;;;17.75;11.18;;;18.40;99.90;;;;;;5074258;28;20131;-76
2022/07/19 00:24:52;;;;;;;19.10;12.05;;;18.40;99.90;;;;;;5074268;28;20399;-76
2022/07/19 00:27:17;;;;;;;17.83;12.93;;;18.40;99.90;;;;;;5074916;28;20135;-75
2022/07/19 00:29:43;;;;;;;18.30;12.00;;;18.40;99.90;;;;;;5089629;28;20051;-76
2022/07/19 00:32:08;;;;;;;19.40;11.88;;;18.40;99.90;;;;;;5073954;28;20044;-76
2022/07/19 00:34:34;;;;;;;24.95;13.80;;;18.40;99.90;;;;;;5089528;28;20046;-76
2022/07/19 00:37:00;;;;;;;18.35;12.18;;;18.40;99.90;;;;;;5089894;28;20044;-76
2022/07/19 00:39:26;;;;;;;18.70;12.18;;;18.40;99.90;;;;;;5074023;28;20040;-76
2022/07/19 00:41:51;;;;;;;20.27;12.13;;;18.30;99.90;;;;;;5072720;28;20045;-76
2022/07/19 00:44:21;;;;;;;16.65;11.95;;;18.30;99.90;;;;;;5073953;28;20044;-76
2022/07/19 00:46:47;;;;;;;17.98;12.02;;;18.30;99.90;;;;;;5072770;28;20051;-76
2022/07/19 00:49:13;;;;;;;17.85;11.93;;;18.30;99.90;;;;;;5073858;28;20044;-76
2022/07/19 00:51:41;;;;;;;19.02;12.15;;;18.40;99.90;;;;;;5073849;28;20037;-76
2022/07/19 00:54:10;;;;;;;17.77;12.30;;;18.30;99.90;;;;;;5073606;28;20044;-76
2022/07/19 00:56:37;;;;;;;23.13;12.85;;;18.30;99.90;;;;;;5073512;28;20438;-76
2022/07/19 00:59:04;;;;;;;19.50;12.15;;;18.30;99.90;;;;;;5074015;28;20072;-76
2022/07/19 01:01:31;;;;;;;21.42;12.52;;;18.30;99.90;;;;;;5072418;28;20088;-76
2022/07/19 01:03:57;;;;;;;18.77;12.27;;;18.30;99.90;;;;;;5073755;28;20040;-76
2022/07/19 01:06:23;;;;;;;18.35;11.82;;;18.30;99.90;;;;;;5072718;28;20041;-76
2022/07/19 01:08:49;;;;;;;18.23;13.57;;;18.30;99.90;;;;;;5072630;28;20108;-76
2022/07/19 01:11:15;;;;;;;20.58;13.93;;;18.30;99.90;;;;;;5073658;28;20116;-76
2022/07/19 01:13:41;;;;;;;19.02;13.27;;;18.30;99.90;;;;;;5072469;28;20052;-76
2022/07/19 01:16:07;;;;;;;27.05;13.98;;;18.30;99.90;;;;;;5088947;28;20131;-76
2022/07/19 01:18:32;;;;;;;20.40;12.98;;;18.30;99.90;;;;;;5072289;28;20052;-76
2022/07/19 01:20:58;;;;;;;22.38;12.45;;;18.30;99.90;;;;;;5073362;28;20053;-76
2022/07/19 01:23:24;;;;;;;24.73;13.32;;;18.30;99.90;;;;;;5073468;28;20047;-76
2022/07/19 01:25:50;;;;;;;21.17;12.77;;;18.40;99.90;;;;;;5072133;28;20052;-76
2022/07/19 01:28:16;;;;;;;20.45;11.80;;;18.30;99.90;;;;;;5073555;28;20033;-75
2022/07/19 01:30:42;;;;;;;19.75;12.13;;;18.30;99.90;;;;;;5073443;28;20088;-76
2022/07/19 01:33:07;;;;;;;19.00;11.65;;;18.30;99.90;;;;;;5073311;28;20127;-76
2022/07/19 01:35:33;;;;;;;19.75;12.00;;;18.30;99.90;;;;;;5073328;28;20052;-76
2022/07/19 01:37:58;;;;;;;20.27;12.02;;;18.30;99.90;;;;;;5073330;28;20090;-76
2022/07/19 01:40:25;;;;;;;17.75;12.32;;;18.30;99.90;;;;;;5089018;28;20451;-76
2022/07/19 01:42:51;;;;;;;24.20;14.57;;;18.30;99.90;;;;;;5071919;28;20049;-76
2022/07/19 01:45:18;;;;;;;19.60;12.95;;;18.30;99.90;;;;;;5073328;28;20036;-76
2022/07/19 01:47:44;;;;;;;23.20;12.68;;;18.30;99.90;;;;;;5073269;28;20040;-76
2022/07/19 01:50:12;;;;;;;21.58;12.23;;;18.30;99.90;;;;;;5073365;28;20507;-76
2022/07/19 01:52:38;;;;;;;21.67;12.90;;;18.30;99.90;;;;;;5073267;28;20128;-76
2022/07/19 01:55:04;;;;;;;18.90;12.63;;;18.30;99.90;;;;;;5073110;28;20123;-76
2022/07/19 01:57:30;;;;;;;18.90;11.70;;;18.30;99.90;;;;;;5072037;28;20467;-76
2022/07/19 01:59:56;;;;;;;17.65;12.02;;;18.40;99.90;;;;;;5072105;28;20076;-76
2022/07/19 02:02:22;;;;;;;18.85;12.23;;;18.30;99.90;;;;;;5073161;28;20127;-76
2022/07/19 02:04:47;;;;;;;16.40;11.32;;;18.40;99.90;;;;;;5074336;28;20135;-75
2022/07/19 02:07:13;;;;;;;18.83;11.38;;;18.40;99.90;;;;;;5076798;28;20036;-76
2022/07/19 02:09:39;;;;;;;19.13;11.98;;;18.40;99.90;;;;;;5092360;28;20053;-76
2022/07/19 02:12:05;;;;;;;20.27;12.30;;;18.40;99.90;;;;;;5076659;28;20068;-76
2022/07/19 02:14:31;;;;;;;18.75;11.77;;;18.50;99.90;;;;;;5076637;28;20044;-76
2022/07/19 02:16:56;;;;;;;18.65;11.05;;;18.50;99.90;;;;;;5075645;28;20041;-76
2022/07/19 02:19:22;;;;;;;19.38;12.30;;;18.50;99.90;;;;;;5076665;28;20373;-76
2022/07/19 02:21:48;;;;;;;19.75;12.38;;;18.50;99.90;;;;;;5076748;28;20060;-76
2022/07/19 02:24:14;;;;;;;20.50;11.88;;;18.50;99.90;;;;;;5092292;28;20131;-76
2022/07/19 02:26:39;;;;;;;19.95;12.30;;;18.50;99.90;;;;;;5075132;28;20048;-76
2022/07/19 02:29:05;;;;;;;21.50;11.55;;;18.50;99.90;;;;;;5075405;28;20097;-76
2022/07/19 02:31:32;;;;;;;16.67;10.77;;;18.50;99.90;;;;;;5076464;28;20131;-76
2022/07/19 02:33:57;;;;;;;19.33;11.13;;;18.50;99.90;;;;;;5076424;28;20036;-76
2022/07/19 02:36:23;;;;;;;21.15;11.20;;;18.50;99.90;;;;;;5091910;28;20487;-76
2022/07/19 02:38:49;;;;;;;16.50;10.82;;;18.50;99.90;;;;;;5076317;28;20094;-76
2022/07/19 02:41:14;;;;;;;18.67;12.20;;;18.50;99.90;;;;;;5076120;28;20125;-76
2022/07/19 02:43:40;;;;;;;21.15;11.27;;;18.60;99.90;;;;;;5076383;28;20068;-76
2022/07/19 02:46:06;;;;;;;18.83;11.23;;;18.50;99.90;;;;;;5076142;28;20037;-76
2022/07/19 02:48:32;;;;;;;17.88;11.68;;;18.50;99.90;;;;;;5076097;28;20037;-76
2022/07/19 02:50:57;;;;;;;18.65;10.90;;;18.60;99.90;;;;;;5076102;28;20051;-76
2022/07/19 02:53:23;;;;;;;19.35;12.18;;;18.60;99.90;;;;;;5074637;28;20050;-76
2022/07/19 02:55:49;;;;;;;18.77;11.95;;;18.60;99.90;;;;;;5075881;28;20051;-76
2022/07/19 02:58:15;;;;;;;17.23;11.60;;;18.60;99.90;;;;;;5091430;28;20057;-76
2022/07/19 03:00:41;;;;;;;21.02;12.68;;;18.60;99.90;;;;;;5075905;28;20055;-76
2022/07/19 03:05:51;;;;;;;18.25;11.73;;;18.50;99.90;;;;;;5075779;28;20051;-76
2022/07/19 03:08:17;;;;;;;19.85;11.88;;;18.50;99.90;;;;;;5074317;28;20048;-76
2022/07/19 03:10:43;;;;;;;20.63;11.30;;;18.50;99.90;;;;;;5074564;28;20119;-76
2022/07/19 03:13:08;;;;;;;24.23;11.90;;;18.50;99.90;;;;;;5075701;28;20582;-76
2022/07/19 03:15:35;;;;;;;19.73;12.07;;;18.50;99.90;;;;;;5075598;28;20169;-76
2022/07/19 03:18:01;;;;;;;22.83;12.75;;;18.50;99.90;;;;;;5075429;28;20045;-76
2022/07/19 03:20:26;;;;;;;21.20;11.43;;;18.50;99.90;;;;;;5073588;28;20125;-76
2022/07/19 03:22:52;;;;;;;19.27;11.82;;;18.50;99.90;;;;;;5075063;28;20075;-76
2022/07/19 03:25:18;;;;;;;18.50;11.00;;;18.50;99.90;;;;;;5074791;28;20055;-75
2022/07/19 03:27:43;;;;;;;21.35;11.48;;;18.50;99.90;;;;;;5073503;28;20050;-76
2022/07/19 03:30:09;;;;;;;18.83;10.65;;;18.50;99.90;;;;;;5073767;28;20044;-75
2022/07/19 03:32:35;;;;;;;19.02;10.73;;;18.50;99.90;;;;;;5073558;28;20044;-75
2022/07/19 03:35:01;;;;;;;18.58;11.07;;;18.50;99.90;;;;;;5074808;28;20045;-76
2022/07/19 03:37:26;;;;;;;16.95;10.73;;;18.40;99.90;;;;;;5073807;28;20049;-76
2022/07/19 03:39:52;;;;;;;17.05;10.73;;;18.40;99.90;;;;;;5074904;28;20032;-75
2022/07/19 03:42:18;;;;;;;20.42;10.13;;;18.40;99.90;;;;;;5074851;28;20040;-76
2022/07/19 03:44:43;;;;;;;16.73;10.45;;;18.40;99.90;;;;;;5075017;28;20551;-76
2022/07/19 03:47:09;;;;;;;16.13;10.65;;;18.40;99.90;;;;;;5074633;28;20044;-76
2022/07/19 03:49:34;;;;;;;16.50;10.70;;;18.40;99.90;;;;;;5073393;28;20123;-76
2022/07/19 03:52:00;;;;;;;20.30;10.93;;;18.40;99.90;;;;;;5074529;28;20048;-76
2022/07/19 03:54:26;;;;;;;19.38;10.82;;;18.30;99.90;;;;;;5074562;28;20479;-76
2022/07/19 03:56:51;;;;;;;19.25;10.90;;;18.30;99.90;;;;;;5090175;28;20049;-76
2022/07/19 03:59:17;;;;;;;16.30;9.95;;;18.30;99.90;;;;;;5074721;28;20047;-75
2022/07/19 04:01:43;;;;;;;19.15;11.07;;;18.30;99.90;;;;;;5074399;28;20051;-76
2022/07/19 04:04:08;;;;;;;17.13;11.18;;;18.30;99.90;;;;;;5074373;28;20097;-75
2022/07/19 04:06:34;;;;;;;19.13;11.10;;;18.30;99.90;;;;;;5074622;28;20051;-76
2022/07/19 04:09:00;;;;;;;21.85;11.10;;;18.30;99.90;;;;;;5073243;28;20048;-75
2022/07/19 04:11:25;;;;;;;19.00;11.45;;;18.40;99.90;;;;;;5074428;28;20071;-76
2022/07/19 04:13:51;;;;;;;18.10;11.48;;;18.40;99.90;;;;;;5090177;28;20044;-76
2022/07/19 04:16:16;;;;;;;20.40;12.65;;;18.40;99.90;;;;;;5074255;28;20044;-75
2022/07/19 04:18:42;;;;;;;21.67;11.75;;;18.40;99.90;;;;;;5074095;28;20040;-75
2022/07/19 04:21:08;;;;;;;18.02;11.88;;;18.40;99.90;;;;;;5073780;28;20056;-76
2022/07/19 04:23:34;;;;;;;18.50;11.88;;;18.50;99.90;;;;;;5074237;28;20059;-75
2022/07/19 04:26:00;;;;;;;17.60;11.43;;;18.50;99.90;;;;;;5072669;28;20044;-76
2022/07/19 04:28:25;;;;;;;19.02;11.43;;;18.50;99.90;;;;;;5072267;28;20051;-76
2022/07/19 04:30:51;;;;;;;17.92;10.85;;;18.60;99.90;;;;;;5073919;28;20127;-75
2022/07/19 04:33:18;;;;;;;18.77;10.93;;;18.60;99.90;;;;;;5072805;28;20045;-76
2022/07/19 04:35:44;;;;;;;19.75;11.07;;;18.70;99.90;;;;;;5089494;28;20040;-75
2022/07/19 04:38:10;;;;;;;19.88;11.23;;;18.70;99.90;;;;;;5074006;28;20115;-76
2022/07/19 04:40:36;;;;;;;19.58;11.48;;;18.80;99.90;;;;;;5072493;28;20147;-76
2022/07/19 04:43:02;;;;;;;22.65;10.85;;;18.80;99.90;;;;;;5072828;28;20094;-76
2022/07/19 04:45:28;;;;;;;19.60;11.70;;;18.90;99.90;;;;;;5073932;28;20036;-76
2022/07/19 04:47:53;;;;;;;18.55;10.70;;;19.00;99.90;;;;;;5073919;28;20040;-76
2022/07/19 04:50:19;;;;;;;21.90;12.43;;;19.00;99.90;;;;;;5073867;28;20047;-75
2022/07/19 04:52:45;;;;;;;17.45;11.98;;;19.00;99.90;;;;;;5089214;28;20052;-76
2022/07/19 04:55:11;;;;;;;20.10;10.75;;;19.10;99.90;;;;;;5073790;28;20144;-76
2022/07/19 04:57:36;;;;;;;20.00;11.52;;;19.20;99.90;;;;;;5073970;28;20044;-76
2022/07/19 05:00:05;;;;;;;18.48;11.77;;;19.20;99.90;;;;;;5073692;28;20398;-76
2022/07/19 05:02:30;;;;;;;20.27;11.88;;;19.20;99.90;;;;;;5073550;28;20079;-76
2022/07/19 05:04:56;;;;;;;18.67;11.55;;;19.30;99.90;;;;;;5073667;28;20076;-76
2022/07/19 05:07:22;;;;;;;19.65;11.52;;;19.30;99.90;;;;;;5073524;28;20464;-75
2022/07/19 05:09:47;;;;;;;19.08;11.10;;;19.40;99.90;;;;;;5089133;28;20135;-75
2022/07/19 05:12:13;;;;;;;18.40;11.35;;;19.40;99.90;;;;;;5073462;28;20040;-75
2022/07/19 05:14:39;;;;;;;18.83;11.27;;;19.50;99.90;;;;;;5073345;28;20480;-75
2022/07/19 05:17:04;;;;;;;19.13;11.38;;;19.60;99.90;;;;;;5088909;28;20048;-75
2022/07/19 05:19:30;;;;;;;21.17;10.90;;;19.60;99.90;;;;;;5073233;28;20488;-76
2022/07/19 05:21:55;;;;;;;19.80;12.00;;;19.70;99.90;;;;;;5073207;28;20053;-75
2022/07/19 05:24:21;;;;;;;19.13;12.18;;;19.70;99.90;;;;;;5089076;28;20056;-76
2022/07/19 05:26:47;;;;;;;19.35;11.30;;;19.80;99.90;;;;;;5073487;28;20037;-76
2022/07/19 05:29:13;;;;;;;33.78;13.70;;;19.80;99.90;;;;;;5072192;28;20055;-76
2022/07/19 05:31:38;;;;;;;22.20;10.20;;;20.00;99.90;;;;;;5073192;28;20553;-76
2022/07/19 05:34:04;;;;;;;20.27;10.35;;;20.00;99.90;;;;;;5073205;28;20048;-76
2022/07/19 05:36:30;;;;;;;23.15;11.80;;;20.10;99.90;;;;;;5073259;28;20127;-76
2022/07/19 05:38:55;;;;;;;18.58;10.90;;;20.20;99.90;;;;;;5088987;28;20041;-76
2022/07/19 05:41:22;;;;;;;17.02;10.65;;;20.30;99.90;;;;;;5077063;28;20063;-76
2022/07/19 05:43:49;;;;;;;19.08;10.68;;;20.40;99.90;;;;;;5092635;28;20049;-76
2022/07/19 05:46:15;;;;;;;21.15;10.52;;;20.60;99.90;;;;;;5077305;28;20050;-76
2022/07/19 05:48:41;;;;;;;18.63;11.35;;;20.60;99.90;;;;;;5077028;28;20171;-76
2022/07/19 05:51:07;;;;;;;16.17;9.95;;;20.80;99.90;;;;;;5077288;28;20041;-76
2022/07/19 05:53:34;;;;;;;18.27;11.02;;;20.90;99.90;;;;;;5076987;28;20391;-76
2022/07/19 05:56:00;;;;;;;18.67;10.40;;;21.10;99.90;;;;;;5077021;28;20128;-76
2022/07/19 05:58:25;;;;;;;13.50;9.15;;;21.20;99.90;;;;;;5077027;28;20132;-76
2022/07/19 06:03:35;;;;;;;18.60;9.05;;;21.50;99.90;;;;;;5077150;28;20136;-76
2022/07/19 06:06:01;;;;;;;19.80;10.45;;;21.60;99.90;;;;;;5076701;28;20076;-77
2022/07/19 06:08:26;;;;;;;15.07;9.30;;;21.70;99.90;;;;;;5075304;28;20448;-76
2022/07/19 06:10:52;;;;;;;14.55;8.85;;;21.80;99.90;;;;;;5075324;28;20506;-77
2022/07/19 06:13:18;;;;;;;18.33;9.10;;;22.00;99.90;;;;;;5078035;28;20111;-75
2022/07/19 06:15:44;;;;;;;17.23;9.50;;;22.10;99.90;;;;;;5084668;28;20128;-75
2022/07/19 06:18:10;;;;;;;23.30;9.43;;;22.20;99.90;;;;;;5075165;28;20521;-75
2022/07/19 06:20:35;;;;;;;19.90;9.52;;;22.40;99.90;;;;;;5075963;28;20049;-75
2022/07/19 06:23:01;;;;;;;15.73;9.52;;;22.60;99.90;;;;;;5076437;28;20048;-75
2022/07/19 06:25:27;;;;;;;13.43;8.65;;;22.70;99.90;;;;;;5075016;28;20048;-75
2022/07/19 06:27:52;;;;;;;15.35;9.00;;;22.90;99.90;;;;;;5076302;28;20372;-75
2022/07/19 06:30:18;;;;;;;14.95;7.95;;;23.00;99.90;;;;;;5076153;28;20122;-76
2022/07/19 06:32:44;;;;;;;17.30;8.93;;;23.10;99.90;;;;;;5075032;28;20186;-75
2022/07/19 06:35:09;;;;;;;16.02;8.65;;;23.30;99.90;;;;;;5074769;28;20495;-75
2022/07/19 06:37:35;;;;;;;19.45;10.55;;;23.40;99.90;;;;;;5075865;28;20040;-76
2022/07/19 06:40:01;;;;;;;16.83;7.93;;;23.50;99.90;;;;;;5074805;28;20053;-76
2022/07/19 06:42:26;;;;;;;15.00;8.57;;;23.70;99.90;;;;;;5076119;28;20137;-75
2022/07/19 06:44:52;;;;;;;12.10;8.13;;;23.60;99.90;;;;;;5075865;28;20098;-76
2022/07/19 06:47:18;;;;;;;13.85;8.38;;;23.70;99.90;;;;;;5075759;28;20436;-77
2022/07/19 06:49:43;;;;;;;14.65;8.40;;;23.80;99.90;;;;;;5074740;28;20127;-78
2022/07/19 06:52:09;;;;;;;18.85;8.43;;;23.90;99.90;;;;;;5073906;28;20553;-77
2022/07/19 06:54:36;;;;;;;15.02;9.15;;;24.00;99.90;;;;;;5075733;28;20076;-77
2022/07/19 06:57:01;;;;;;;14.90;9.15;;;24.10;99.90;;;;;;5075756;28;20048;-77
2022/07/19 06:59:27;;;;;;;17.90;8.40;;;24.20;99.90;;;;;;5074248;28;20044;-78
2022/07/19 07:01:53;;;;;;;13.32;8.55;;;24.30;99.90;;;;;;5075598;28;20048;-78
2022/07/19 07:04:18;;;;;;;19.73;8.98;;;24.40;99.90;;;;;;5074132;28;20043;-78
2022/07/19 07:06:44;;;;;;;15.77;8.43;;;24.50;99.90;;;;;;5075379;28;20032;-78
2022/07/19 07:09:10;;;;;;;15.13;8.30;;;24.60;99.90;;;;;;5075232;28;20415;-78
2022/07/19 07:11:36;;;;;;;14.68;7.72;;;24.70;99.90;;;;;;5075444;28;20043;-78
2022/07/19 07:14:02;;;;;;;14.25;7.75;;;24.90;99.90;;;;;;5076238;28;20056;-78
2022/07/19 07:16:27;;;;;;;14.27;7.93;;;25.00;99.90;;;;;;5084041;28;20055;-78
2022/07/19 07:18:53;;;;;;;14.85;7.88;;;25.10;99.90;;;;;;5075409;28;20037;-78
2022/07/19 07:21:18;;;;;;;14.75;8.18;;;25.20;99.90;;;;;;5073737;28;20056;-78
2022/07/19 07:23:44;;;;;;;13.55;7.47;;;25.30;99.90;;;;;;5074937;28;20049;-77
2022/07/19 07:26:11;;;;;;;13.02;7.82;;;25.40;99.90;;;;;;5075266;28;20204;-78
2022/07/19 07:28:37;;;;;;;16.30;7.57;;;25.60;99.90;;;;;;5073681;28;20131;-78
2022/07/19 07:31:02;;;;;;;13.48;6.80;;;25.70;99.90;;;;;;5074915;28;20132;-78
2022/07/19 07:33:28;;;;;;;11.93;6.70;;;25.80;99.90;;;;;;5088881;28;20047;-78
2022/07/19 07:35:53;;;;;;;11.20;6.95;;;26.00;99.90;;;;;;5094598;28;20043;-78
2022/07/19 07:38:19;;;;;;;11.52;6.50;;;26.10;99.90;;;;;;5095067;28;20036;-78
2022/07/19 07:40:46;;;;;;;13.65;7.32;;;26.30;99.90;;;;;;5093380;28;20051;-78
2022/07/19 07:43:11;;;;;;;12.70;7.40;;;26.40;99.90;;;;;;5093182;28;20043;-78
2022/07/19 07:45:37;;;;;;;10.95;7.13;;;26.50;99.90;;;;;;5093015;28;20043;-78
2022/07/19 07:48:03;;;;;;;12.65;6.70;;;26.60;99.90;;;;;;5075464;28;20079;-78
2022/07/19 07:50:28;;;;;;;11.35;6.50;;;26.70;99.90;;;;;;5073423;28;20395;-78
2022/07/19 07:52:54;;;;;;;11.20;6.60;;;26.90;99.90;;;;;;5075907;28;20048;-78
2022/07/19 07:55:20;;;;;;;11.02;6.30;;;26.90;99.90;;;;;;5092957;28;20032;-78
2022/07/19 07:57:45;;;;;;;10.15;6.25;;;27.10;99.90;;;;;;5077721;28;20040;-77
2022/07/19 08:00:13;;;;;;;11.05;6.35;;;27.20;99.90;;;;;;5074287;28;20044;-77
2022/07/19 08:02:44;;;;;;;11.10;6.45;;;27.40;99.90;;;;;;5089402;28;20049;-78
2022/07/19 08:05:10;;;;;;;10.75;7.07;;;27.50;99.90;;;;;;5074310;28;20045;-78
2022/07/19 08:07:36;;;;;;;11.73;6.43;;;27.60;99.90;;;;;;5094177;28;20089;-77
2022/07/19 08:10:07;;;;;;;12.70;6.25;;;27.60;99.90;;;;;;5094344;28;20452;-77
2022/07/19 08:12:33;;;;;;;11.82;6.43;;;27.70;99.90;;;;;;5093363;28;20487;-77
2022/07/19 08:14:58;;;;;;;12.07;6.22;;;27.80;99.90;;;;;;5086321;28;20052;-77
2022/07/19 08:17:24;;;;;;;10.70;6.43;;;28.00;99.90;;;;;;5081220;28;20052;-78
2022/07/19 08:19:50;;;;;;;10.18;6.32;;;28.10;99.90;;;;;;5072697;28;20041;-78
2022/07/19 08:22:16;;;;;;;9.88;6.63;;;28.20;99.90;;;;;;5072406;28;20060;-78
2022/07/19 08:24:42;;;;;;;9.32;5.88;;;28.30;99.90;;;;;;5076560;28;20055;-79
2022/07/19 08:27:08;;;;;;;14.20;6.70;;;28.30;99.90;;;;;;5081040;28;20048;-78
2022/07/19 08:29:34;;;;;;;13.15;6.05;;;28.60;99.90;;;;;;5072295;28;20048;-76
2022/07/19 08:31:59;;;;;;;11.77;6.10;;;28.50;99.90;;;;;;5072016;28;20048;-75
2022/07/19 08:34:25;;;;;;;15.25;6.28;;;28.60;99.90;;;;;;5071030;28;20042;-76
2022/07/19 08:36:51;;;;;;;9.07;6.20;;;28.80;99.90;;;;;;5073233;28;20132;-75
2022/07/19 08:39:16;;;;;;;10.15;5.95;;;29.00;99.90;;;;;;5073531;28;20056;-76
2022/07/19 08:41:46;;;;;;;9.60;5.55;;;29.10;99.90;;;;;;5073459;28;20475;-75
2022/07/19 08:44:12;;;;;;;13.18;6.10;;;29.20;99.90;;;;;;5073438;28;20499;-76
2022/07/19 08:46:41;;;;;;;9.15;6.00;;;29.20;99.90;;;;;;5072262;28;20048;-75
2022/07/19 08:49:08;;;;;;;10.85;5.20;;;29.30;99.90;;;;;;5072068;28;20044;-77
2022/07/19 08:51:35;;;;;;;10.35;5.88;;;29.50;99.90;;;;;;5073604;28;20043;-76
2022/07/19 08:54:01;;;;;;;9.80;5.75;;;29.50;99.90;;;;;;5073480;28;20052;-76
2022/07/19 08:59:11;;;;;;;8.90;6.13;;;29.80;99.70;;;;;;5073586;28;20052;-76
2022/07/19 09:01:37;;;;;;;10.95;5.95;;;29.90;99.90;;;;;;5073530;28;20037;-76
2022/07/19 09:04:07;;;;;;;10.93;5.78;;;30.00;99.90;;;;;;5073426;28;20427;-75
2022/07/19 09:06:44;;;;;;;9.45;5.35;;;30.10;98.50;;;;;;5071954;28;20047;-76
2022/07/19 09:09:12;;;;;;;16.35;5.90;;;30.30;99.90;;;;;;5073579;28;20044;-76
2022/07/19 09:11:48;;;;;;;15.82;5.15;;;30.30;99.90;;;;;;5072064;28;20040;-76
2022/07/19 09:14:14;;;;;;;8.35;5.28;;;30.40;99.60;;;;;;5072067;28;20123;-77
2022/07/19 09:16:54;;;;;;;11.15;5.85;;;30.50;99.20;;;;;;5071880;28;20053;-77
2022/07/19 09:19:20;;;;;;;14.05;5.72;;;30.70;98.70;;;;;;5073456;28;20106;-76
2022/07/19 09:22:13;;;;;;;12.95;5.28;;;30.80;98.40;;;;;;5073043;28;20051;-76
2022/07/19 09:24:50;;;;;;;10.00;4.97;;;31.00;97.20;;;;;;5071392;28;20139;-76
2022/07/19 09:27:25;;;;;;;10.15;5.13;;;31.10;94.00;;;;;;5073023;28;20499;-76
2022/07/19 09:29:56;;;;;;;7.40;4.80;;;31.20;95.50;;;;;;5073220;28;20055;-77
2022/07/19 09:32:23;;;;;;;10.20;4.85;;;31.30;95.20;;;;;;5071953;28;20070;-76
2022/07/19 09:34:58;;;;;;;9.00;4.68;;;31.30;94.40;;;;;;5073021;28;20059;-76
2022/07/19 09:37:27;;;;;;;11.60;5.03;;;31.40;93.30;;;;;;5073185;28;20055;-75
2022/07/19 09:39:55;;;;;;;11.30;5.05;;;31.50;90.50;;;;;;5071956;28;20052;-75
2022/07/19 09:42:23;;;;;;;9.55;4.78;;;31.40;89.60;;;;;;5071851;28;20414;-75
2022/07/19 09:45:00;;;;;;;7.65;4.78;;;31.60;92.20;;;;;;5072783;28;20127;-76
2022/07/19 09:47:33;;;;;;;11.77;4.65;;;31.80;91.30;;;;;;5072912;28;20095;-75
2022/07/19 09:49:59;;;;;;;8.68;4.30;;;31.80;89.60;;;;;;5072953;28;20117;-77
2022/07/19 09:52:26;;;;;;;8.05;4.20;;;32.00;91.00;;;;;;5072611;28;20430;-75
2022/07/19 09:54:52;;;;;;;6.15;3.88;;;32.10;90.00;;;;;;5072890;28;20063;-76
2022/07/19 09:57:23;;;;;;;7.57;3.97;;;32.20;83.90;;;;;;5072792;28;20398;-76
2022/07/19 09:59:54;;;;;;;8.10;4.18;;;32.20;85.20;;;;;;5073103;28;20040;-75
2022/07/19 10:02:23;;;;;;;7.00;4.53;;;32.40;85.00;;;;;;5071791;28;20053;-76
2022/07/19 10:04:50;;;;;;;11.00;4.43;;;32.40;79.90;;;;;;5073012;28;20032;-76
2022/07/19 10:07:19;;;;;;;8.65;3.83;;;32.40;80.60;;;;;;5071559;28;20051;-76
2022/07/19 10:09:45;;;;;;;13.23;4.05;;;32.40;77.00;;;;;;5071424;28;20392;-76
2022/07/19 10:12:12;;;;;;;12.18;4.30;;;32.50;77.10;;;;;;5071309;28;20089;-75
2022/07/19 10:14:38;;;;;;;9.43;4.00;;;32.50;75.70;;;;;;5072529;28;20515;-76
2022/07/19 10:17:36;;;;;;;13.43;4.30;;;32.70;76.70;;;;;;5071261;28;20127;-76
2022/07/19 10:20:05;;;;;;;7.55;3.90;;;32.70;69.70;;;;;;5082931;28;20062;-76
2022/07/19 10:22:31;;;;;;;10.02;4.18;;;32.80;70.00;;;;;;5091788;28;20114;-76
2022/07/19 10:24:59;;;;;;;5.47;3.47;;;32.90;67.00;;;;;;5092722;28;20123;-76
2022/07/19 10:27:24;;;;;;;7.40;3.50;;;33.00;70.20;;;;;;5095310;28;20036;-76
2022/07/19 10:29:51;;;;;;;5.80;3.42;;;33.10;69.70;;;;;;5095089;28;20520;-75
2022/07/19 10:32:17;;;;;;;6.10;3.30;;;33.10;68.20;;;;;;5096452;28;20043;-75
2022/07/19 10:34:47;;;;;;;9.77;3.92;;;33.30;66.40;;;;;;5096136;28;20066;-76
2022/07/19 10:37:13;;;;;;;5.85;3.22;;;33.30;66.70;;;;;;5096281;28;20127;-77
2022/07/19 10:39:40;;;;;;;6.57;3.47;;;33.30;61.30;;;;;;5096362;28;20079;-76
2022/07/19 10:42:18;;;;;;;5.75;3.33;;;33.40;62.90;;;;;;5096401;28;20040;-76
2022/07/19 10:44:56;;;;;;;10.73;3.70;;;33.40;61.60;;;;;;5094995;28;20086;-75
2022/07/19 10:47:40;;;;;;;10.90;3.72;;;33.50;60.80;;;;;;5095176;28;20116;-75
2022/07/19 10:50:10;;;;;;;8.82;3.80;;;33.50;61.70;;;;;;5089332;28;20479;-76
2022/07/19 10:52:38;;;;;;;6.97;3.17;;;33.60;61.00;;;;;;5076948;28;20098;-76
2022/07/19 10:55:25;;;;;;;5.72;3.50;;;33.70;61.60;;;;;;5074314;28;20051;-76
2022/07/19 10:58:08;;;;;;;8.52;3.08;;;33.90;59.30;;;;;;5075673;28;20053;-75
2022/07/19 11:00:41;;;;;;;10.73;3.60;;;33.80;58.20;;;;;;5086807;28;20058;-76
2022/07/19 11:03:22;;;;;;;5.63;3.00;;;33.80;59.00;;;;;;5074560;28;20052;-76
2022/07/19 11:05:54;;;;;;;9.30;3.40;;;33.90;56.90;;;;;;5073903;28;20052;-76
2022/07/19 11:08:33;;;;;;;5.15;3.20;;;34.00;58.00;;;;;;5075585;28;20120;-76
2022/07/19 11:11:07;;;;;;;5.93;2.85;;;34.10;57.40;;;;;;5075199;28;20047;-76
2022/07/19 11:13:34;;;;;;;8.60;2.95;;;34.10;57.60;;;;;;5075513;28;20118;-76
2022/07/19 11:16:02;;;;;;;6.93;2.70;;;34.30;58.40;;;;;;5075220;28;20037;-76
2022/07/19 11:18:28;;;;;;;6.00;3.03;;;34.50;58.40;;;;;;5074895;28;20131;-76
2022/07/19 11:20:58;;;;;;;6.93;2.85;;;34.60;57.40;;;;;;5086573;28;20051;-76
2022/07/19 11:23:27;;;;;;;6.43;3.00;;;34.60;57.10;;;;;;5075125;28;20405;-75
2022/07/19 11:26:11;;;;;;;4.57;2.58;;;34.70;56.80;;;;;;5075061;28;20045;-76
2022/07/19 11:28:39;;;;;;;5.55;2.83;;;34.70;54.90;;;;;;5073965;28;20048;-76
2022/07/19 11:31:15;;;;;;;5.78;2.92;;;34.70;54.90;;;;;;5087181;28;20067;-76
2022/07/19 11:33:41;;;;;;;7.40;2.72;;;34.70;53.50;;;;;;5082539;28;20055;-75
2022/07/19 11:36:08;;;;;;;5.07;2.65;;;34.70;53.30;;;;;;5074055;28;20052;-76
2022/07/19 11:38:35;;;;;;;4.10;2.42;;;34.70;53.00;;;;;;5072037;28;20364;-75
2022/07/19 11:41:01;;;;;;;6.53;2.78;;;34.70;51.30;;;;;;5073461;28;20036;-75
2022/07/19 11:43:26;;;;;;;7.32;2.65;;;34.80;54.40;;;;;;5074516;28;20045;-76
2022/07/19 11:45:52;;;;;;;5.22;2.60;;;35.00;56.30;;;;;;5073548;28;20135;-77
2022/07/19 11:48:29;;;;;;;4.38;2.20;;;34.90;51.40;;;;;;5074490;28;20044;-76
2022/07/19 11:51:10;;;;;;;4.68;2.40;;;34.90;51.30;;;;;;5073470;28;20487;-76
2022/07/19 11:53:39;;;;;;;4.90;2.80;;;34.90;51.90;;;;;;5074868;28;20036;-76
2022/07/19 11:56:16;;;;;;;5.28;2.53;;;34.90;49.20;;;;;;5074369;28;20090;-76
2022/07/19 11:58:43;;;;;;;6.95;2.50;;;35.00;51.60;;;;;;5074293;28;20084;-76
2022/07/19 12:01:08;;;;;;;3.70;2.10;;;35.10;49.20;;;;;;5074552;28;20040;-76
2022/07/19 12:03:34;;;;;;;7.43;2.50;;;35.00;50.70;;;;;;5074471;28;20052;-76
2022/07/19 12:06:07;;;;;;;8.60;2.95;;;35.20;52.50;;;;;;5074326;28;20166;-76
2022/07/19 12:08:40;;;;;;;5.97;2.67;;;35.10;51.50;;;;;;5074423;28;20095;-76
2022/07/19 12:11:24;;;;;;;7.22;2.95;;;35.10;50.80;;;;;;5073143;28;20056;-75
2022/07/19 12:13:52;;;;;;;3.78;2.20;;;35.20;48.60;;;;;;5078039;28;20048;-76
2022/07/19 12:16:19;;;;;;;7.03;2.50;;;35.20;51.10;;;;;;5104807;28;20556;-77
2022/07/19 12:18:51;;;;;;;4.35;2.63;;;35.10;48.40;;;;;;5094362;28;20047;-77
2022/07/19 12:21:23;;;;;;;6.15;2.65;;;35.30;51.60;;;;;;5092840;28;20445;-77
2022/07/19 12:24:19;;;;;;;4.95;2.53;;;35.30;49.50;;;;;;5093972;28;20100;-76
2022/07/19 12:27:00;;;;;;;5.82;2.33;;;35.40;48.50;;;;;;5093031;28;20101;-77
2022/07/19 12:29:29;;;;;;;6.38;2.30;;;35.30;48.00;;;;;;5094018;28;20487;-78
2022/07/19 12:32:00;;;;;;;4.18;2.70;;;35.40;48.40;;;;;;5094206;28;20036;-77
2022/07/19 12:34:27;;;;;;;8.65;2.42;;;35.30;47.70;;;;;;5093855;28;20471;-77
2022/07/19 12:36:53;;;;;;;5.22;2.08;;;35.30;48.50;;;;;;5094054;28;20127;-77
2022/07/19 12:39:27;;;;;;;5.72;2.35;;;35.30;46.80;;;;;;5094022;28;20036;-77
2022/07/19 12:41:58;;;;;;;7.28;2.50;;;35.30;47.50;;;;;;5093867;28;20048;-77
2022/07/19 12:44:24;;;;;;;2.83;1.98;;;35.40;47.50;;;;;;5092416;28;20044;-81